sensor_id;sensor_type;location;lat;lon;timestamp;P1;durP1;ratioP1;P2;durP2;ratioP2
24547;SDS011;12713;51.624;4.924;2024-01-16T00:01:20;14.25;;;3.47;;
24547;SDS011;12713;51.624;4.924;2024-01-16T00:03:52;11.13;;;2.88;;
24547;SDS011;12713;51.624;4.924;2024-01-16T00:06:21;15.48;;;2.83;;
24547;SDS011;12713;51.624;4.924;2024-01-16T00:08:47;13.88;;;3.05;;
24547;SDS011;12713;51.624;4.924;2024-01-16T00:11:13;12.52;;;2.92;;
24547;SDS011;12713;51.624;4.924;2024-01-16T00:13:40;13.88;;;2.65;;
24547;SDS011;12713;51.624;4.924;2024-01-16T00:16:07;11.82;;;2.78;;
24547;SDS011;12713;51.624;4.924;2024-01-16T00:18:39;22.60;;;4.47;;
24547;SDS011;12713;51.624;4.924;2024-01-16T00:21:05;16.98;;;3.20;;
24547;SDS011;12713;51.624;4.924;2024-01-16T00:23:31;10.68;;;2.83;;
24547;SDS011;12713;51.624;4.924;2024-01-16T00:25:59;11.95;;;3.50;;
24547;SDS011;12713;51.624;4.924;2024-01-16T00:28:25;7.65;;;3.10;;
24547;SDS011;12713;51.624;4.924;2024-01-16T00:30:51;10.75;;;2.92;;
24547;SDS011;12713;51.624;4.924;2024-01-16T00:33:17;13.75;;;3.60;;
24547;SDS011;12713;51.624;4.924;2024-01-16T00:35:49;14.77;;;3.65;;
24547;SDS011;12713;51.624;4.924;2024-01-16T00:38:16;16.13;;;3.42;;
24547;SDS011;12713;51.624;4.924;2024-01-16T00:40:42;8.18;;;2.30;;
24547;SDS011;12713;51.624;4.924;2024-01-16T00:43:09;5.78;;;2.13;;
24547;SDS011;12713;51.624;4.924;2024-01-16T00:45:37;6.60;;;1.80;;
24547;SDS011;12713;51.624;4.924;2024-01-16T00:48:08;8.80;;;2.28;;
24547;SDS011;12713;51.624;4.924;2024-01-16T00:50:51;9.32;;;2.00;;
24547;SDS011;12713;51.624;4.924;2024-01-16T00:53:17;8.18;;;2.08;;
24547;SDS011;12713;51.624;4.924;2024-01-16T00:55:44;9.77;;;2.00;;
24547;SDS011;12713;51.624;4.924;2024-01-16T00:58:10;7.97;;;2.20;;
24547;SDS011;12713;51.624;4.924;2024-01-16T01:03:29;10.88;;;3.10;;
24547;SDS011;12713;51.624;4.924;2024-01-16T01:05:57;8.57;;;2.47;;
24547;SDS011;12713;51.624;4.924;2024-01-16T01:10:54;9.77;;;2.85;;
24547;SDS011;12713;51.624;4.924;2024-01-16T01:13:34;7.35;;;1.88;;
24547;SDS011;12713;51.624;4.924;2024-01-16T01:16:20;8.65;;;1.88;;
24547;SDS011;12713;51.624;4.924;2024-01-16T01:18:49;8.82;;;2.25;;
24547;SDS011;12713;51.624;4.924;2024-01-16T01:24:19;12.75;;;2.67;;
24547;SDS011;12713;51.624;4.924;2024-01-16T01:26:48;8.43;;;2.22;;
24547;SDS011;12713;51.624;4.924;2024-01-16T01:29:14;19.83;;;3.92;;
24547;SDS011;12713;51.624;4.924;2024-01-16T01:31:40;24.00;;;6.63;;
24547;SDS011;12713;51.624;4.924;2024-01-16T01:34:06;12.57;;;2.53;;
24547;SDS011;12713;51.624;4.924;2024-01-16T01:36:32;12.50;;;2.80;;
24547;SDS011;12713;51.624;4.924;2024-01-16T01:38:58;10.80;;;2.22;;
24547;SDS011;12713;51.624;4.924;2024-01-16T01:41:25;11.02;;;2.33;;
24547;SDS011;12713;51.624;4.924;2024-01-16T01:43:54;6.53;;;1.63;;
24547;SDS011;12713;51.624;4.924;2024-01-16T01:46:25;8.52;;;2.10;;
24547;SDS011;12713;51.624;4.924;2024-01-16T01:48:52;8.68;;;2.13;;
24547;SDS011;12713;51.624;4.924;2024-01-16T01:51:19;8.68;;;2.83;;
24547;SDS011;12713;51.624;4.924;2024-01-16T01:53:45;10.38;;;2.40;;
24547;SDS011;12713;51.624;4.924;2024-01-16T01:56:16;10.77;;;3.40;;
24547;SDS011;12713;51.624;4.924;2024-01-16T01:58:43;8.68;;;3.15;;
24547;SDS011;12713;51.624;4.924;2024-01-16T02:01:10;12.20;;;3.25;;
24547;SDS011;12713;51.624;4.924;2024-01-16T02:03:41;7.28;;;3.42;;
24547;SDS011;12713;51.624;4.924;2024-01-16T02:06:08;6.38;;;2.92;;
24547;SDS011;12713;51.624;4.924;2024-01-16T02:08:38;13.70;;;3.67;;
24547;SDS011;12713;51.624;4.924;2024-01-16T02:11:04;11.82;;;3.10;;
24547;SDS011;12713;51.624;4.924;2024-01-16T02:13:31;16.15;;;3.38;;
24547;SDS011;12713;51.624;4.924;2024-01-16T02:15:57;9.57;;;3.20;;
24547;SDS011;12713;51.624;4.924;2024-01-16T02:18:23;8.35;;;2.58;;
24547;SDS011;12713;51.624;4.924;2024-01-16T02:20:49;12.18;;;2.38;;
24547;SDS011;12713;51.624;4.924;2024-01-16T02:23:21;10.43;;;3.10;;
24547;SDS011;12713;51.624;4.924;2024-01-16T02:25:51;12.93;;;4.22;;
24547;SDS011;12713;51.624;4.924;2024-01-16T02:28:17;7.80;;;3.58;;
24547;SDS011;12713;51.624;4.924;2024-01-16T02:30:43;12.60;;;3.95;;
24547;SDS011;12713;51.624;4.924;2024-01-16T02:33:09;11.77;;;3.75;;
24547;SDS011;12713;51.624;4.924;2024-01-16T02:35:35;15.30;;;3.40;;
24547;SDS011;12713;51.624;4.924;2024-01-16T02:38:01;10.20;;;3.00;;
24547;SDS011;12713;51.624;4.924;2024-01-16T02:40:27;6.53;;;2.53;;
24547;SDS011;12713;51.624;4.924;2024-01-16T02:42:53;10.40;;;2.60;;
24547;SDS011;12713;51.624;4.924;2024-01-16T02:45:19;12.65;;;3.35;;
24547;SDS011;12713;51.624;4.924;2024-01-16T02:47:45;12.38;;;2.60;;
24547;SDS011;12713;51.624;4.924;2024-01-16T02:50:11;11.43;;;3.33;;
24547;SDS011;12713;51.624;4.924;2024-01-16T02:52:38;9.02;;;2.33;;
24547;SDS011;12713;51.624;4.924;2024-01-16T02:55:04;8.82;;;2.97;;
24547;SDS011;12713;51.624;4.924;2024-01-16T02:57:30;7.30;;;2.92;;
24547;SDS011;12713;51.624;4.924;2024-01-16T02:59:56;14.57;;;2.78;;
24547;SDS011;12713;51.624;4.924;2024-01-16T03:02:22;8.82;;;2.17;;
24547;SDS011;12713;51.624;4.924;2024-01-16T03:04:49;10.70;;;3.95;;
24547;SDS011;12713;51.624;4.924;2024-01-16T03:07:15;11.18;;;3.03;;
24547;SDS011;12713;51.624;4.924;2024-01-16T03:09:41;8.27;;;2.65;;
24547;SDS011;12713;51.624;4.924;2024-01-16T03:12:07;9.70;;;2.92;;
24547;SDS011;12713;51.624;4.924;2024-01-16T03:14:33;7.95;;;2.92;;
24547;SDS011;12713;51.624;4.924;2024-01-16T03:17:04;10.70;;;3.08;;
24547;SDS011;12713;51.624;4.924;2024-01-16T03:19:31;13.13;;;3.00;;
24547;SDS011;12713;51.624;4.924;2024-01-16T03:21:57;11.75;;;4.05;;
24547;SDS011;12713;51.624;4.924;2024-01-16T03:24:23;10.35;;;3.03;;
24547;SDS011;12713;51.624;4.924;2024-01-16T03:26:49;15.35;;;4.53;;
24547;SDS011;12713;51.624;4.924;2024-01-16T03:29:15;11.32;;;4.57;;
24547;SDS011;12713;51.624;4.924;2024-01-16T03:31:41;13.90;;;3.53;;
24547;SDS011;12713;51.624;4.924;2024-01-16T03:34:07;15.23;;;4.25;;
24547;SDS011;12713;51.624;4.924;2024-01-16T03:36:35;13.00;;;4.25;;
24547;SDS011;12713;51.624;4.924;2024-01-16T03:39:01;12.18;;;4.30;;
24547;SDS011;12713;51.624;4.924;2024-01-16T03:41:27;14.13;;;5.15;;
24547;SDS011;12713;51.624;4.924;2024-01-16T03:43:53;12.10;;;4.90;;
24547;SDS011;12713;51.624;4.924;2024-01-16T03:46:21;15.35;;;4.30;;
24547;SDS011;12713;51.624;4.924;2024-01-16T03:48:47;19.88;;;4.70;;
24547;SDS011;12713;51.624;4.924;2024-01-16T03:51:14;19.90;;;5.25;;
24547;SDS011;12713;51.624;4.924;2024-01-16T03:53:41;16.85;;;4.40;;
24547;SDS011;12713;51.624;4.924;2024-01-16T03:56:07;15.85;;;4.63;;
24547;SDS011;12713;51.624;4.924;2024-01-16T03:58:33;11.40;;;4.15;;
24547;SDS011;12713;51.624;4.924;2024-01-16T04:00:59;7.95;;;4.03;;
24547;SDS011;12713;51.624;4.924;2024-01-16T04:03:28;13.35;;;4.72;;
24547;SDS011;12713;51.624;4.924;2024-01-16T04:05:54;21.08;;;4.82;;
24547;SDS011;12713;51.624;4.924;2024-01-16T04:08:20;12.65;;;4.00;;
24547;SDS011;12713;51.624;4.924;2024-01-16T04:10:46;16.30;;;4.40;;
24547;SDS011;12713;51.624;4.924;2024-01-16T04:13:12;22.15;;;4.93;;
24547;SDS011;12713;51.624;4.924;2024-01-16T04:15:38;16.33;;;4.15;;
24547;SDS011;12713;51.624;4.924;2024-01-16T04:18:07;14.05;;;4.07;;
24547;SDS011;12713;51.624;4.924;2024-01-16T04:20:33;17.50;;;4.40;;
24547;SDS011;12713;51.624;4.924;2024-01-16T04:22:59;17.17;;;4.20;;
24547;SDS011;12713;51.624;4.924;2024-01-16T04:25:25;23.38;;;4.03;;
24547;SDS011;12713;51.624;4.924;2024-01-16T04:27:51;9.70;;;3.75;;
24547;SDS011;12713;51.624;4.924;2024-01-16T04:30:17;16.77;;;3.90;;
24547;SDS011;12713;51.624;4.924;2024-01-16T04:32:45;16.10;;;3.97;;
24547;SDS011;12713;51.624;4.924;2024-01-16T04:38:16;19.58;;;4.88;;
24547;SDS011;12713;51.624;4.924;2024-01-16T04:40:42;20.30;;;4.70;;
24547;SDS011;12713;51.624;4.924;2024-01-16T04:43:08;13.73;;;4.53;;
24547;SDS011;12713;51.624;4.924;2024-01-16T04:45:36;18.05;;;4.10;;
24547;SDS011;12713;51.624;4.924;2024-01-16T04:48:02;12.50;;;3.90;;
24547;SDS011;12713;51.624;4.924;2024-01-16T04:50:28;18.83;;;4.40;;
24547;SDS011;12713;51.624;4.924;2024-01-16T04:53:00;12.55;;;3.72;;
24547;SDS011;12713;51.624;4.924;2024-01-16T04:55:26;19.15;;;4.38;;
24547;SDS011;12713;51.624;4.924;2024-01-16T04:57:53;12.93;;;4.47;;
24547;SDS011;12713;51.624;4.924;2024-01-16T05:00:19;15.75;;;4.60;;
24547;SDS011;12713;51.624;4.924;2024-01-16T05:02:46;19.23;;;5.70;;
24547;SDS011;12713;51.624;4.924;2024-01-16T05:05:12;22.55;;;5.35;;
24547;SDS011;12713;51.624;4.924;2024-01-16T05:07:40;18.70;;;6.10;;
24547;SDS011;12713;51.624;4.924;2024-01-16T05:10:09;21.80;;;7.00;;
24547;SDS011;12713;51.624;4.924;2024-01-16T05:12:37;19.45;;;8.25;;
24547;SDS011;12713;51.624;4.924;2024-01-16T05:15:04;20.33;;;8.18;;
24547;SDS011;12713;51.624;4.924;2024-01-16T05:17:30;21.23;;;8.27;;
24547;SDS011;12713;51.624;4.924;2024-01-16T05:19:58;21.38;;;8.50;;
24547;SDS011;12713;51.624;4.924;2024-01-16T05:22:24;19.63;;;8.50;;
24547;SDS011;12713;51.624;4.924;2024-01-16T05:24:50;18.83;;;7.90;;
24547;SDS011;12713;51.624;4.924;2024-01-16T05:27:16;17.42;;;8.02;;
24547;SDS011;12713;51.624;4.924;2024-01-16T05:29:42;21.08;;;9.25;;
24547;SDS011;12713;51.624;4.924;2024-01-16T05:32:08;23.50;;;8.63;;
24547;SDS011;12713;51.624;4.924;2024-01-16T05:34:35;26.20;;;8.60;;
24547;SDS011;12713;51.624;4.924;2024-01-16T05:37:01;26.75;;;10.70;;
24547;SDS011;12713;51.624;4.924;2024-01-16T05:39:27;24.20;;;10.20;;
24547;SDS011;12713;51.624;4.924;2024-01-16T05:41:53;24.35;;;10.02;;
24547;SDS011;12713;51.624;4.924;2024-01-16T05:44:19;26.20;;;9.73;;
24547;SDS011;12713;51.624;4.924;2024-01-16T05:46:45;23.48;;;9.23;;
24547;SDS011;12713;51.624;4.924;2024-01-16T05:49:11;22.38;;;9.70;;
24547;SDS011;12713;51.624;4.924;2024-01-16T05:51:37;33.42;;;10.50;;
24547;SDS011;12713;51.624;4.924;2024-01-16T05:54:03;20.35;;;8.73;;
24547;SDS011;12713;51.624;4.924;2024-01-16T05:56:30;26.83;;;9.90;;
24547;SDS011;12713;51.624;4.924;2024-01-16T05:58:57;22.70;;;9.35;;
24547;SDS011;12713;51.624;4.924;2024-01-16T06:01:23;21.23;;;9.00;;
24547;SDS011;12713;51.624;4.924;2024-01-16T06:03:49;25.83;;;9.57;;
24547;SDS011;12713;51.624;4.924;2024-01-16T06:06:15;22.63;;;9.70;;
24547;SDS011;12713;51.624;4.924;2024-01-16T06:08:41;25.98;;;9.88;;
24547;SDS011;12713;51.624;4.924;2024-01-16T06:11:07;30.45;;;9.23;;
24547;SDS011;12713;51.624;4.924;2024-01-16T06:13:33;21.10;;;10.02;;
24547;SDS011;12713;51.624;4.924;2024-01-16T06:16:00;23.17;;;9.52;;
24547;SDS011;12713;51.624;4.924;2024-01-16T06:18:26;20.30;;;8.80;;
24547;SDS011;12713;51.624;4.924;2024-01-16T06:20:52;20.42;;;9.30;;
24547;SDS011;12713;51.624;4.924;2024-01-16T06:23:18;21.88;;;9.07;;
24547;SDS011;12713;51.624;4.924;2024-01-16T06:25:44;22.92;;;9.27;;
24547;SDS011;12713;51.624;4.924;2024-01-16T06:28:10;21.20;;;8.63;;
24547;SDS011;12713;51.624;4.924;2024-01-16T06:30:36;30.00;;;10.20;;
24547;SDS011;12713;51.624;4.924;2024-01-16T06:33:02;20.20;;;9.15;;
24547;SDS011;12713;51.624;4.924;2024-01-16T06:35:29;20.20;;;7.90;;
24547;SDS011;12713;51.624;4.924;2024-01-16T06:37:55;24.05;;;8.38;;
24547;SDS011;12713;51.624;4.924;2024-01-16T06:40:21;20.30;;;8.27;;
24547;SDS011;12713;51.624;4.924;2024-01-16T06:42:47;17.15;;;7.85;;
24547;SDS011;12713;51.624;4.924;2024-01-16T06:45:13;18.50;;;7.88;;
24547;SDS011;12713;51.624;4.924;2024-01-16T06:47:40;21.23;;;7.88;;
24547;SDS011;12713;51.624;4.924;2024-01-16T06:50:07;21.23;;;7.78;;
24547;SDS011;12713;51.624;4.924;2024-01-16T06:52:33;22.13;;;7.93;;
24547;SDS011;12713;51.624;4.924;2024-01-16T06:54:59;23.55;;;8.25;;
24547;SDS011;12713;51.624;4.924;2024-01-16T06:57:25;22.67;;;8.75;;
24547;SDS011;12713;51.624;4.924;2024-01-16T06:59:52;22.95;;;7.97;;
24547;SDS011;12713;51.624;4.924;2024-01-16T07:02:18;17.48;;;6.82;;
24547;SDS011;12713;51.624;4.924;2024-01-16T07:04:44;23.13;;;8.15;;
24547;SDS011;12713;51.624;4.924;2024-01-16T07:07:13;19.80;;;9.00;;
24547;SDS011;12713;51.624;4.924;2024-01-16T07:09:39;19.85;;;8.27;;
24547;SDS011;12713;51.624;4.924;2024-01-16T07:12:06;26.38;;;8.30;;
24547;SDS011;12713;51.624;4.924;2024-01-16T07:14:32;18.00;;;8.35;;
24547;SDS011;12713;51.624;4.924;2024-01-16T07:16:58;20.55;;;8.27;;
24547;SDS011;12713;51.624;4.924;2024-01-16T07:19:25;15.27;;;7.22;;
24547;SDS011;12713;51.624;4.924;2024-01-16T07:21:51;23.77;;;7.47;;
24547;SDS011;12713;51.624;4.924;2024-01-16T07:24:17;15.52;;;8.15;;
24547;SDS011;12713;51.624;4.924;2024-01-16T07:26:43;17.88;;;7.88;;
24547;SDS011;12713;51.624;4.924;2024-01-16T07:29:09;20.92;;;7.90;;
24547;SDS011;12713;51.624;4.924;2024-01-16T07:31:35;18.88;;;8.35;;
24547;SDS011;12713;51.624;4.924;2024-01-16T07:34:01;17.73;;;7.72;;
24547;SDS011;12713;51.624;4.924;2024-01-16T07:36:27;18.98;;;7.45;;
24547;SDS011;12713;51.624;4.924;2024-01-16T07:38:53;20.30;;;7.85;;
24547;SDS011;12713;51.624;4.924;2024-01-16T07:41:19;12.93;;;6.60;;
24547;SDS011;12713;51.624;4.924;2024-01-16T07:43:45;22.27;;;7.25;;
24547;SDS011;12713;51.624;4.924;2024-01-16T07:46:11;21.90;;;7.35;;
24547;SDS011;12713;51.624;4.924;2024-01-16T07:48:37;16.92;;;7.28;;
24547;SDS011;12713;51.624;4.924;2024-01-16T07:51:03;20.85;;;7.72;;
24547;SDS011;12713;51.624;4.924;2024-01-16T07:53:29;20.10;;;7.45;;
24547;SDS011;12713;51.624;4.924;2024-01-16T07:55:55;17.73;;;7.43;;
24547;SDS011;12713;51.624;4.924;2024-01-16T07:58:22;14.98;;;7.28;;
24547;SDS011;12713;51.624;4.924;2024-01-16T08:00:48;14.63;;;8.15;;
24547;SDS011;12713;51.624;4.924;2024-01-16T08:03:14;14.75;;;6.63;;
24547;SDS011;12713;51.624;4.924;2024-01-16T08:05:40;22.52;;;7.78;;
24547;SDS011;12713;51.624;4.924;2024-01-16T08:08:10;16.90;;;7.47;;
24547;SDS011;12713;51.624;4.924;2024-01-16T08:10:36;14.90;;;7.10;;
24547;SDS011;12713;51.624;4.924;2024-01-16T08:13:03;15.75;;;7.55;;
24547;SDS011;12713;51.624;4.924;2024-01-16T08:15:29;14.95;;;7.15;;
24547;SDS011;12713;51.624;4.924;2024-01-16T08:17:55;16.25;;;7.07;;
24547;SDS011;12713;51.624;4.924;2024-01-16T08:20:21;15.88;;;6.65;;
24547;SDS011;12713;51.624;4.924;2024-01-16T08:22:47;16.80;;;7.00;;
24547;SDS011;12713;51.624;4.924;2024-01-16T08:25:15;19.35;;;7.20;;
24547;SDS011;12713;51.624;4.924;2024-01-16T08:27:41;14.30;;;6.63;;
24547;SDS011;12713;51.624;4.924;2024-01-16T08:30:08;17.10;;;6.43;;
24547;SDS011;12713;51.624;4.924;2024-01-16T08:32:36;15.90;;;7.20;;
24547;SDS011;12713;51.624;4.924;2024-01-16T08:35:14;14.55;;;7.45;;
24547;SDS011;12713;51.624;4.924;2024-01-16T08:37:48;14.23;;;6.35;;
24547;SDS011;12713;51.624;4.924;2024-01-16T08:40:14;19.67;;;7.63;;
24547;SDS011;12713;51.624;4.924;2024-01-16T08:42:40;17.70;;;6.82;;
24547;SDS011;12713;51.624;4.924;2024-01-16T08:45:07;16.63;;;6.82;;
24547;SDS011;12713;51.624;4.924;2024-01-16T08:47:33;16.85;;;6.72;;
24547;SDS011;12713;51.624;4.924;2024-01-16T08:49:59;19.63;;;8.40;;
24547;SDS011;12713;51.624;4.924;2024-01-16T08:52:25;19.95;;;6.65;;
24547;SDS011;12713;51.624;4.924;2024-01-16T08:54:52;16.30;;;6.10;;
24547;SDS011;12713;51.624;4.924;2024-01-16T08:57:18;15.70;;;6.43;;
24547;SDS011;12713;51.624;4.924;2024-01-16T08:59:44;19.92;;;5.97;;
24547;SDS011;12713;51.624;4.924;2024-01-16T09:02:10;15.63;;;5.97;;
24547;SDS011;12713;51.624;4.924;2024-01-16T09:04:36;13.35;;;5.80;;
24547;SDS011;12713;51.624;4.924;2024-01-16T09:07:03;13.95;;;6.45;;
24547;SDS011;12713;51.624;4.924;2024-01-16T09:09:29;13.68;;;6.15;;
24547;SDS011;12713;51.624;4.924;2024-01-16T09:11:55;22.90;;;7.10;;
24547;SDS011;12713;51.624;4.924;2024-01-16T09:14:23;17.83;;;5.88;;
24547;SDS011;12713;51.624;4.924;2024-01-16T09:16:49;14.88;;;6.32;;
24547;SDS011;12713;51.624;4.924;2024-01-16T09:19:16;15.60;;;6.88;;
24547;SDS011;12713;51.624;4.924;2024-01-16T09:21:44;14.35;;;6.45;;
24547;SDS011;12713;51.624;4.924;2024-01-16T09:24:13;12.63;;;6.25;;
24547;SDS011;12713;51.624;4.924;2024-01-16T09:26:45;11.43;;;6.28;;
24547;SDS011;12713;51.624;4.924;2024-01-16T09:29:16;25.85;;;6.93;;
24547;SDS011;12713;51.624;4.924;2024-01-16T09:31:42;13.45;;;5.90;;
24547;SDS011;12713;51.624;4.924;2024-01-16T09:34:08;13.82;;;6.57;;
24547;SDS011;12713;51.624;4.924;2024-01-16T09:36:34;13.20;;;6.72;;
24547;SDS011;12713;51.624;4.924;2024-01-16T09:39:02;10.45;;;5.47;;
24547;SDS011;12713;51.624;4.924;2024-01-16T09:41:28;15.82;;;6.53;;
24547;SDS011;12713;51.624;4.924;2024-01-16T09:43:57;13.77;;;6.25;;
24547;SDS011;12713;51.624;4.924;2024-01-16T09:46:23;12.98;;;6.40;;
24547;SDS011;12713;51.624;4.924;2024-01-16T09:48:52;15.77;;;8.02;;
24547;SDS011;12713;51.624;4.924;2024-01-16T09:51:20;28.98;;;8.73;;
24547;SDS011;12713;51.624;4.924;2024-01-16T09:53:46;14.48;;;6.82;;
24547;SDS011;12713;51.624;4.924;2024-01-16T09:56:15;12.00;;;6.20;;
24547;SDS011;12713;51.624;4.924;2024-01-16T09:58:43;11.25;;;6.13;;
24547;SDS011;12713;51.624;4.924;2024-01-16T10:01:11;18.23;;;6.18;;
24547;SDS011;12713;51.624;4.924;2024-01-16T10:03:38;16.63;;;7.85;;
24547;SDS011;12713;51.624;4.924;2024-01-16T10:06:04;18.25;;;9.68;;
24547;SDS011;12713;51.624;4.924;2024-01-16T10:08:32;21.55;;;8.23;;
24547;SDS011;12713;51.624;4.924;2024-01-16T10:10:58;15.68;;;7.47;;
24547;SDS011;12713;51.624;4.924;2024-01-16T10:13:33;15.15;;;8.38;;
24547;SDS011;12713;51.624;4.924;2024-01-16T10:16:02;15.40;;;7.70;;
24547;SDS011;12713;51.624;4.924;2024-01-16T10:18:29;13.57;;;8.07;;
24547;SDS011;12713;51.624;4.924;2024-01-16T10:20:55;14.18;;;6.32;;
24547;SDS011;12713;51.624;4.924;2024-01-16T10:23:28;11.73;;;6.80;;
24547;SDS011;12713;51.624;4.924;2024-01-16T10:28:33;13.63;;;6.68;;
24547;SDS011;12713;51.624;4.924;2024-01-16T10:31:03;13.65;;;5.88;;
24547;SDS011;12713;51.624;4.924;2024-01-16T10:33:29;11.13;;;6.05;;
24547;SDS011;12713;51.624;4.924;2024-01-16T10:36:14;12.85;;;5.72;;
24547;SDS011;12713;51.624;4.924;2024-01-16T10:42:02;12.88;;;6.30;;
24547;SDS011;12713;51.624;4.924;2024-01-16T10:52:50;10.88;;;6.10;;
24547;SDS011;12713;51.624;4.924;2024-01-16T11:01:06;14.95;;;5.75;;
24547;SDS011;12713;51.624;4.924;2024-01-16T11:18:08;10.50;;;4.93;;
24547;SDS011;12713;51.624;4.924;2024-01-16T11:24:06;10.40;;;4.85;;
24547;SDS011;12713;51.624;4.924;2024-01-16T11:27:08;10.32;;;4.30;;
24547;SDS011;12713;51.624;4.924;2024-01-16T11:29:40;14.13;;;4.63;;
24547;SDS011;12713;51.624;4.924;2024-01-16T18:24:17;18.48;;;8.43;;
24547;SDS011;12713;51.624;4.924;2024-01-16T18:26:44;11.90;;;6.38;;
24547;SDS011;12713;51.624;4.924;2024-01-16T18:29:51;11.80;;;6.43;;
24547;SDS011;12713;51.624;4.924;2024-01-16T18:32:21;11.68;;;6.10;;
24547;SDS011;12713;51.624;4.924;2024-01-16T18:34:50;13.35;;;5.90;;
24547;SDS011;12713;51.624;4.924;2024-01-16T18:37:20;15.55;;;7.50;;
24547;SDS011;12713;51.624;4.924;2024-01-16T18:39:52;13.18;;;7.32;;
24547;SDS011;12713;51.624;4.924;2024-01-16T18:42:39;18.90;;;7.10;;
24547;SDS011;12713;51.624;4.924;2024-01-16T18:47:48;16.48;;;7.57;;
24547;SDS011;12713;51.624;4.924;2024-01-16T18:50:20;13.15;;;7.45;;
24547;SDS011;12713;51.624;4.924;2024-01-16T18:52:47;13.27;;;7.13;;
24547;SDS011;12713;51.624;4.924;2024-01-16T18:55:13;14.75;;;7.70;;
24547;SDS011;12713;51.624;4.924;2024-01-16T18:57:42;17.33;;;7.25;;
24547;SDS011;12713;51.624;4.924;2024-01-16T19:00:16;10.93;;;7.35;;
24547;SDS011;12713;51.624;4.924;2024-01-16T19:02:47;18.75;;;8.23;;
24547;SDS011;12713;51.624;4.924;2024-01-16T19:05:14;11.43;;;6.93;;
24547;SDS011;12713;51.624;4.924;2024-01-16T19:07:41;12.60;;;7.32;;
24547;SDS011;12713;51.624;4.924;2024-01-16T19:10:10;14.70;;;7.50;;
24547;SDS011;12713;51.624;4.924;2024-01-16T19:16:10;13.05;;;7.63;;
24547;SDS011;12713;51.624;4.924;2024-01-16T19:24:10;15.00;;;9.00;;
24547;SDS011;12713;51.624;4.924;2024-01-16T19:26:45;13.63;;;9.07;;
24547;SDS011;12713;51.624;4.924;2024-01-16T19:29:17;15.88;;;8.90;;
24547;SDS011;12713;51.624;4.924;2024-01-16T19:31:47;14.80;;;9.02;;
24547;SDS011;12713;51.624;4.924;2024-01-16T19:34:16;19.75;;;8.45;;
24547;SDS011;12713;51.624;4.924;2024-01-16T19:36:48;13.38;;;7.80;;
24547;SDS011;12713;51.624;4.924;2024-01-16T19:39:15;12.70;;;7.75;;
24547;SDS011;12713;51.624;4.924;2024-01-16T19:41:44;12.68;;;8.05;;
24547;SDS011;12713;51.624;4.924;2024-01-16T19:44:11;15.02;;;8.02;;
24547;SDS011;12713;51.624;4.924;2024-01-16T19:46:45;16.70;;;8.15;;
24547;SDS011;12713;51.624;4.924;2024-01-16T19:49:14;22.02;;;9.43;;
24547;SDS011;12713;51.624;4.924;2024-01-16T19:51:46;12.98;;;8.25;;
24547;SDS011;12713;51.624;4.924;2024-01-16T19:54:19;21.67;;;9.70;;
24547;SDS011;12713;51.624;4.924;2024-01-16T19:56:50;19.42;;;10.43;;
24547;SDS011;12713;51.624;4.924;2024-01-16T19:59:16;19.33;;;9.60;;
24547;SDS011;12713;51.624;4.924;2024-01-16T20:01:45;22.00;;;11.85;;
24547;SDS011;12713;51.624;4.924;2024-01-16T20:04:11;15.95;;;9.00;;
24547;SDS011;12713;51.624;4.924;2024-01-16T20:06:37;22.15;;;11.50;;
24547;SDS011;12713;51.624;4.924;2024-01-16T20:09:03;21.52;;;11.38;;
24547;SDS011;12713;51.624;4.924;2024-01-16T20:11:31;18.27;;;9.70;;
24547;SDS011;12713;51.624;4.924;2024-01-16T20:14:00;18.40;;;9.50;;
24547;SDS011;12713;51.624;4.924;2024-01-16T20:16:27;22.58;;;9.93;;
24547;SDS011;12713;51.624;4.924;2024-01-16T20:18:54;18.23;;;8.98;;
24547;SDS011;12713;51.624;4.924;2024-01-16T20:21:24;13.07;;;8.40;;
24547;SDS011;12713;51.624;4.924;2024-01-16T20:26:19;18.50;;;9.05;;
24547;SDS011;12713;51.624;4.924;2024-01-16T20:28:46;19.35;;;9.00;;
24547;SDS011;12713;51.624;4.924;2024-01-16T20:31:12;13.75;;;8.77;;
24547;SDS011;12713;51.624;4.924;2024-01-16T20:33:42;16.42;;;8.88;;
24547;SDS011;12713;51.624;4.924;2024-01-16T20:36:13;16.48;;;9.52;;
24547;SDS011;12713;51.624;4.924;2024-01-16T20:38:40;22.40;;;9.75;;
24547;SDS011;12713;51.624;4.924;2024-01-16T20:41:07;16.58;;;9.20;;
24547;SDS011;12713;51.624;4.924;2024-01-16T20:43:33;17.13;;;9.10;;
24547;SDS011;12713;51.624;4.924;2024-01-16T20:46:01;16.30;;;9.30;;
24547;SDS011;12713;51.624;4.924;2024-01-16T20:48:28;13.70;;;9.00;;
24547;SDS011;12713;51.624;4.924;2024-01-16T20:50:54;18.98;;;9.48;;
24547;SDS011;12713;51.624;4.924;2024-01-16T20:53:23;16.70;;;9.27;;
24547;SDS011;12713;51.624;4.924;2024-01-16T20:55:49;18.55;;;11.45;;
24547;SDS011;12713;51.624;4.924;2024-01-16T21:03:45;15.98;;;10.00;;
24547;SDS011;12713;51.624;4.924;2024-01-16T21:06:12;20.60;;;9.63;;
24547;SDS011;12713;51.624;4.924;2024-01-16T21:08:38;21.02;;;10.43;;
24547;SDS011;12713;51.624;4.924;2024-01-16T21:11:04;19.05;;;11.05;;
24547;SDS011;12713;51.624;4.924;2024-01-16T21:13:32;19.60;;;11.38;;
24547;SDS011;12713;51.624;4.924;2024-01-16T21:15:58;17.17;;;9.65;;
24547;SDS011;12713;51.624;4.924;2024-01-16T21:18:26;21.50;;;11.25;;
24547;SDS011;12713;51.624;4.924;2024-01-16T21:20:55;23.70;;;10.98;;
24547;SDS011;12713;51.624;4.924;2024-01-16T21:23:21;21.42;;;11.30;;
24547;SDS011;12713;51.624;4.924;2024-01-16T21:25:48;19.77;;;11.23;;
24547;SDS011;12713;51.624;4.924;2024-01-16T21:28:21;17.90;;;10.88;;
24547;SDS011;12713;51.624;4.924;2024-01-16T21:30:48;18.17;;;11.90;;
24547;SDS011;12713;51.624;4.924;2024-01-16T21:33:14;23.02;;;11.43;;
24547;SDS011;12713;51.624;4.924;2024-01-16T21:35:43;18.50;;;11.50;;
24547;SDS011;12713;51.624;4.924;2024-01-16T21:38:09;21.05;;;11.48;;
24547;SDS011;12713;51.624;4.924;2024-01-16T21:40:35;21.27;;;12.48;;
24547;SDS011;12713;51.624;4.924;2024-01-16T21:43:01;23.05;;;13.57;;
24547;SDS011;12713;51.624;4.924;2024-01-16T21:45:28;22.38;;;12.73;;
24547;SDS011;12713;51.624;4.924;2024-01-16T21:47:55;24.52;;;12.93;;
24547;SDS011;12713;51.624;4.924;2024-01-16T21:50:21;21.90;;;11.77;;
24547;SDS011;12713;51.624;4.924;2024-01-16T21:52:49;23.75;;;12.27;;
24547;SDS011;12713;51.624;4.924;2024-01-16T21:55:15;23.83;;;13.57;;
24547;SDS011;12713;51.624;4.924;2024-01-16T21:57:43;21.55;;;13.50;;
24547;SDS011;12713;51.624;4.924;2024-01-16T22:00:10;27.75;;;14.55;;
24547;SDS011;12713;51.624;4.924;2024-01-16T22:02:37;29.70;;;14.23;;
24547;SDS011;12713;51.624;4.924;2024-01-16T22:05:04;21.92;;;13.63;;
24547;SDS011;12713;51.624;4.924;2024-01-16T22:07:30;24.10;;;14.23;;
24547;SDS011;12713;51.624;4.924;2024-01-16T22:09:56;24.35;;;14.43;;
24547;SDS011;12713;51.624;4.924;2024-01-16T22:12:23;22.98;;;13.25;;
24547;SDS011;12713;51.624;4.924;2024-01-16T22:14:50;22.33;;;15.57;;
24547;SDS011;12713;51.624;4.924;2024-01-16T22:17:19;26.83;;;15.52;;
24547;SDS011;12713;51.624;4.924;2024-01-16T22:19:50;28.05;;;17.02;;
24547;SDS011;12713;51.624;4.924;2024-01-16T22:22:16;32.75;;;17.27;;
24547;SDS011;12713;51.624;4.924;2024-01-16T22:24:42;25.08;;;16.00;;
24547;SDS011;12713;51.624;4.924;2024-01-16T22:27:08;27.40;;;16.67;;
24547;SDS011;12713;51.624;4.924;2024-01-16T22:29:34;29.33;;;16.77;;
24547;SDS011;12713;51.624;4.924;2024-01-16T22:32:01;29.38;;;16.67;;
24547;SDS011;12713;51.624;4.924;2024-01-16T22:34:29;28.48;;;15.00;;
24547;SDS011;12713;51.624;4.924;2024-01-16T22:36:56;29.02;;;16.17;;